Portada
METAR-TAF:

METAR-TAF

Aeroports :

Rochelle Municipal Airport (Koritz Field)

Rochelle, Illinois, Estats Units d'Amèrica

latitud: 41-53-35N, longitud: 089-04-42W, altitud: 238 m

Observació

L'informe es va fer fa 35 minuts, a les 00:55 UTC
Vent 7 kt del Est/Sud-Est
Temperatura 25°C
Humitat 69%
Pressió 1013 hPa
Visibilitat: 16.1 km
Núvols disperses a una alçada de 6500 ft
Cel cobert a una alçada de 8000 ft

METAR: KRPJ 280055Z AUTO 12007KT 10SM SCT065 OVC080 25/19 A2990 RMK AO2 LTG DSNT W T02450190

Hora: 20:30 (01:30 UTC)


TAF: manca

Observacions i pronòstics meteorològics de més de 4000 aeroports (METAR i TAF).

Les estacions disponibles són els punts grocs i vermells al mapa.

Posi el ratolí al punt desitjat per veure el nom de l'estació.

Feu clic per veure les observacions i els pronòstics meteorològics.

Per canviar el mapa: feu clic els botons verds amb una creu de color negre per apropar; al botó verd amb un guió per allunyar la imatge; o en les fletxes verdes per a mapes adjacents.


METAR-TAF: